Time;durP1;ratioP1;P1;durP2;ratioP2;P2;SDS_P1;SDS_P2;PMS_P1;PMS_P2;Temp;Humidity;BMP_temperature;BMP_pressure;BME280_temperature;BME280_humidity;BME280_pressure;Samples;Min_cycle;Max_cycle;Signal;HPM_P1;HPM_P2
2023/05/10 00:02:22;;;;;;;2.72;1.85;;;;;;;13.96;59.97;99934.25;4454578;32;24649;-89
2023/05/10 00:04:48;;;;;;;2.67;1.58;;;;;;;14.05;59.97;99932.09;4482400;32;20413;-89
2023/05/10 00:07:13;;;;;;;2.55;1.98;;;;;;;14.02;59.96;99936.62;4461433;32;20089;-89
2023/05/10 00:09:38;;;;;;;2.75;1.90;;;;;;;13.83;59.96;99947.84;4456082;32;20139;-89
2023/05/10 00:12:04;;;;;;;5.35;2.40;;;;;;;13.78;59.95;99939.34;4470367;32;20127;-90
2023/05/10 00:14:30;;;;;;;3.87;2.25;;;;;;;13.74;59.96;99932.56;4457479;32;20380;-89
2023/05/10 00:16:55;;;;;;;2.70;2.08;;;;;;;13.76;59.95;99937.72;4467724;32;20429;-90
2023/05/10 00:19:20;;;;;;;3.65;2.00;;;;;;;13.67;59.95;99935.47;4453346;32;20146;-89
2023/05/10 00:21:46;;;;;;;2.95;2.25;;;;;;;13.60;59.94;99932.28;4451769;32;20127;-91
2023/05/10 00:24:11;;;;;;;4.75;2.30;;;;;;;13.70;59.95;99935.34;4457853;32;20147;-91
2023/05/10 00:26:37;;;;;;;3.50;2.12;;;;;;;13.52;59.94;99935.22;4455427;32;20258;-90
2023/05/10 00:29:02;;;;;;;5.50;2.50;;;;;;;13.57;59.95;99935.03;4456484;32;20116;-91
2023/05/10 00:31:28;;;;;;;6.55;2.60;;;;;;;13.43;59.94;99938.19;4451503;32;20573;-91
2023/05/10 00:33:53;;;;;;;4.57;2.70;;;;;;;13.39;59.93;99933.16;4453959;32;20127;-91
2023/05/10 00:36:18;;;;;;;5.85;2.55;;;;;;;13.42;59.94;99933.88;4464639;32;20116;-92
2023/05/10 00:38:44;;;;;;;7.12;2.62;;;;;;;13.37;59.93;99929.75;4457833;32;20152;-90
2023/05/10 00:41:09;;;;;;;4.15;2.50;;;;;;;13.38;59.93;99932.28;4458467;32;20396;-91
2023/05/10 00:43:35;;;;;;;4.78;2.90;;;;;;;13.31;59.92;99930.84;4453600;32;20109;-91
2023/05/10 00:46:01;;;;;;;5.10;2.72;;;;;;;13.14;59.92;99931.47;4448879;32;20164;-90
2023/05/10 00:48:26;;;;;;;7.32;2.80;;;;;;;13.23;59.92;99930.28;4466398;32;20148;-91
2023/05/10 00:50:51;;;;;;;3.53;2.53;;;;;;;13.16;59.92;99932.28;4454565;32;25284;-91
2023/05/10 00:53:17;;;;;;;6.68;3.40;;;;;;;13.16;59.92;99931.41;4453297;32;20489;-91
2023/05/10 00:55:43;;;;;;;4.32;2.85;;;;;;;13.08;59.91;99926.50;4470596;32;20163;-90
2023/05/10 00:58:08;;;;;;;4.85;2.90;;;;;;;12.93;59.91;99924.47;4469902;32;20475;-92
2023/05/10 01:00:34;;;;;;;5.22;2.95;;;;;;;12.89;59.90;99920.28;4449464;32;20111;-90
2023/05/10 01:02:59;;;;;;;5.70;2.97;;;;;;;12.94;59.91;99914.88;4467892;32;20105;-91
2023/05/10 01:05:26;;;;;;;4.72;2.95;;;;;;;12.89;59.90;99920.28;4449320;32;20093;-89
2023/05/10 01:07:52;;;;;;;3.65;2.70;;;;;;;12.97;59.91;99928.66;4445117;32;20093;-91
2023/05/10 01:10:18;;;;;;;5.55;3.08;;;;;;;12.97;59.91;99926.06;4454843;32;20112;-91
2023/05/10 01:12:44;;;;;;;5.15;3.22;;;;;;;12.84;59.90;99923.09;4468172;32;20491;-91
2023/05/10 01:15:10;;;;;;;4.37;3.12;;;;;;;12.86;59.90;99920.41;4454643;32;20100;-91
2023/05/10 01:17:36;;;;;;;4.07;3.05;;;;;;;12.75;59.90;99918.19;4455074;32;20385;-92
2023/05/10 01:20:02;;;;;;;6.35;3.20;;;;;;;12.73;59.90;99920.00;4457157;32;20114;-91
2023/05/10 01:22:30;;;;;;;5.32;3.50;;;;;;;12.70;59.89;99925.34;4446882;32;20108;-92
2023/05/10 01:25:37;;;;;;;7.28;3.60;;;;;;;12.68;59.89;99923.72;4484519;32;20145;-91
2023/05/10 01:28:22;;;;;;;5.97;3.67;;;;;;;12.67;59.90;99927.25;4464115;32;20153;-90
2023/05/10 01:30:51;;;;;;;5.32;3.60;;;;;;;12.60;59.89;99918.78;4479741;32;20108;-89
2023/05/10 01:33:36;;;;;;;6.70;3.47;;;;;;;12.59;59.89;99917.94;4479476;32;20127;-88
2023/05/10 01:36:26;;;;;;;5.80;3.72;;;;;;;12.54;59.88;99916.41;4477714;32;20169;-89
2023/05/10 01:38:59;;;;;;;6.75;4.95;;;;;;;12.54;59.88;99913.81;4471319;32;20111;-88
2023/05/10 01:41:51;;;;;;;5.53;3.17;;;;;;;12.56;59.88;99912.84;4471514;32;20493;-88
2023/05/10 01:44:54;;;;;;;6.45;3.62;;;;;;;12.50;59.89;99918.28;4469116;32;20126;-89
2023/05/10 01:47:29;;;;;;;7.80;4.12;;;;;;;12.52;59.88;99920.81;4477887;32;20145;-88
2023/05/10 01:49:55;;;;;;;5.40;3.55;;;;;;;12.52;59.88;99916.44;4471637;32;20138;-89
2023/05/10 01:52:26;;;;;;;6.18;3.58;;;;;;;12.43;59.88;99921.16;4450443;32;20100;-88
2023/05/10 01:55:08;;;;;;;6.72;3.85;;;;;;;12.39;59.87;99915.22;4469754;32;20111;-89
2023/05/10 01:57:35;;;;;;;4.35;3.22;;;;;;;12.43;59.88;99913.34;4463223;32;20453;-91
2023/05/10 02:00:04;;;;;;;5.28;3.05;;;;;;;12.27;59.88;99910.44;4470876;32;20096;-89
2023/05/10 02:02:32;;;;;;;5.57;3.23;;;;;;;12.42;59.88;99907.25;4471916;32;20093;-89
2023/05/10 02:04:57;;;;;;;6.15;3.90;;;;;;;12.49;59.88;99900.06;4461183;32;20444;-89
2023/05/10 02:07:23;;;;;;;10.30;3.75;;;;;;;12.35;59.86;99908.41;4470229;32;31740;-89
2023/05/10 02:09:48;;;;;;;4.37;3.30;;;;;;;12.27;59.86;99900.00;4471293;32;20088;-89
2023/05/10 02:12:14;;;;;;;4.07;3.08;;;;;;;12.45;59.88;99893.25;4471528;32;20750;-89
2023/05/10 02:14:39;;;;;;;5.68;3.62;;;;;;;12.48;59.88;99893.97;4457335;32;28691;-89
2023/05/10 02:17:05;;;;;;;6.00;3.83;;;;;;;12.53;59.89;99891.19;4469156;32;20247;-89
2023/05/10 02:19:31;;;;;;;5.47;3.47;;;;;;;12.43;59.88;99893.31;4457999;32;20392;-89
2023/05/10 02:21:57;;;;;;;9.43;3.22;;;;;;;12.44;59.88;99884.56;4469356;32;20156;-88
2023/05/10 02:24:22;;;;;;;7.28;3.30;;;;;;;12.46;59.88;99885.34;4455554;32;20143;-89
2023/05/10 02:26:48;;;;;;;6.50;3.35;;;;;;;12.55;59.89;99882.41;4455327;32;20134;-88
2023/05/10 02:29:13;;;;;;;6.25;3.78;;;;;;;12.55;59.89;99882.41;4455694;32;20135;-91
2023/05/10 02:31:38;;;;;;;6.20;3.33;;;;;;;12.57;59.89;99877.97;4455666;32;20394;-91
2023/05/10 02:34:04;;;;;;;5.25;3.42;;;;;;;12.54;59.89;99875.50;4457000;32;20645;-89
2023/05/10 02:36:31;;;;;;;10.98;3.62;;;;;;;12.76;59.89;99880.72;4455049;32;20107;-91
2023/05/10 02:38:56;;;;;;;9.10;3.53;;;;;;;12.82;59.90;99882.25;4470090;32;20076;-89
2023/05/10 02:41:22;;;;;;;7.87;3.53;;;;;;;12.76;59.89;99885.94;4456746;32;29403;-91
2023/05/10 02:43:50;;;;;;;6.55;3.03;;;;;;;12.85;59.90;99888.22;4471528;32;20156;-92
2023/05/10 02:46:15;;;;;;;5.45;3.28;;;;;;;12.83;59.90;99884.81;4468534;32;20174;-88
2023/05/10 02:48:41;;;;;;;8.40;3.53;;;;;;;12.89;59.90;99891.56;4467857;32;20120;-90
2023/05/10 02:51:07;;;;;;;5.55;3.25;;;;;;;13.04;59.91;99892.72;4465129;32;20096;-88
2023/05/10 02:53:34;;;;;;;4.50;3.15;;;;;;;13.07;59.91;99887.37;4474109;32;20101;-89
2023/05/10 02:56:03;;;;;;;4.03;2.78;;;;;;;13.06;59.91;99889.13;4470580;32;20511;-88
2023/05/10 02:58:29;;;;;;;4.87;3.47;;;;;;;13.03;59.91;99891.03;4468004;32;20147;-89
2023/05/10 03:00:54;;;;;;;5.00;3.37;;;;;;;13.10;59.91;99877.63;4472479;32;20112;-88
2023/05/10 03:03:19;;;;;;;5.47;3.50;;;;;;;13.19;59.92;99877.28;4467999;32;20121;-88
2023/05/10 03:05:45;;;;;;;3.90;2.97;;;;;;;13.17;59.91;99883.47;4470203;32;20136;-88
2023/05/10 03:08:10;;;;;;;4.95;3.30;;;;;;;13.11;59.92;99875.88;4470134;32;29826;-89
2023/05/10 03:10:41;;;;;;;5.40;3.17;;;;;;;13.03;59.91;99884.03;4470716;32;20132;-86
2023/05/10 03:13:17;;;;;;;4.05;2.70;;;;;;;13.03;59.91;99886.66;4471230;32;20100;-88
2023/05/10 03:15:51;;;;;;;5.90;3.42;;;;;;;13.05;59.91;99879.59;4449055;32;20165;-88
2023/05/10 03:18:21;;;;;;;5.78;3.22;;;;;;;13.13;59.92;99877.50;4469668;32;21059;-87
2023/05/10 03:20:51;;;;;;;4.53;2.75;;;;;;;13.07;59.91;99876.91;4484229;32;20111;-88
2023/05/10 03:23:28;;;;;;;6.25;3.62;;;;;;;13.03;59.91;99884.03;4484066;32;20108;-87
2023/05/10 03:25:53;;;;;;;4.32;3.20;;;;;;;12.91;59.90;99882.75;4476847;32;20128;-88
2023/05/10 03:28:20;;;;;;;4.47;3.37;;;;;;;12.78;59.89;99880.69;4468962;32;20152;-87
2023/05/10 03:30:46;;;;;;;6.35;3.97;;;;;;;12.79;59.89;99878.00;4483788;32;20127;-87
2023/05/10 03:33:12;;;;;;;4.95;3.35;;;;;;;12.81;59.90;99878.81;4457489;32;20176;-86
2023/05/10 03:35:37;;;;;;;4.47;3.10;;;;;;;12.79;59.90;99879.78;4470802;32;20111;-86
2023/05/10 03:38:03;;;;;;;5.07;3.20;;;;;;;12.69;59.89;99881.88;4484735;32;20108;-87
2023/05/10 03:40:31;;;;;;;4.53;2.90;;;;;;;12.72;59.89;99875.69;4485065;31;20164;-86
2023/05/10 03:42:56;;;;;;;6.35;3.70;;;;;;;12.60;59.89;99877.00;4455167;32;20097;-87
2023/05/10 03:45:22;;;;;;;5.97;3.58;;;;;;;12.65;59.89;99882.91;4457838;32;20209;-87
2023/05/10 03:47:47;;;;;;;5.93;3.28;;;;;;;12.68;59.89;99881.94;4483456;32;20128;-87
2023/05/10 03:50:12;;;;;;;5.97;3.20;;;;;;;12.78;59.89;99876.31;4483267;32;20376;-87
2023/05/10 03:52:41;;;;;;;6.20;4.05;;;;;;;12.72;59.89;99880.91;4470009;32;20515;-88
2023/05/10 03:55:07;;;;;;;6.53;2.92;;;;;;;12.77;59.89;99882.41;4455502;32;20545;-87
2023/05/10 03:57:33;;;;;;;8.18;3.05;;;;;;;12.79;59.89;99887.59;4481718;32;20161;-87
2023/05/10 03:59:58;;;;;;;7.60;3.50;;;;;;;12.66;59.89;99876.78;4470454;32;20128;-87
2023/05/10 04:02:24;;;;;;;6.43;3.37;;;;;;;12.71;59.89;99874.81;4484280;32;20150;-86
2023/05/10 04:04:49;;;;;;;6.35;3.42;;;;;;;12.79;59.89;99875.41;4483364;32;20186;-86
2023/05/10 04:07:14;;;;;;;6.72;3.65;;;;;;;12.73;59.89;99878.22;4482844;32;20128;-87
2023/05/10 04:09:40;;;;;;;4.15;3.03;;;;;;;12.90;59.90;99874.97;4470573;32;20106;-87
2023/05/10 04:12:05;;;;;;;6.45;3.67;;;;;;;12.76;59.89;99874.62;4482829;32;23823;-88
2023/05/10 04:14:31;;;;;;;6.50;3.47;;;;;;;12.74;59.90;99879.06;4483585;32;20123;-87
2023/05/10 04:16:56;;;;;;;6.37;3.83;;;;;;;12.66;59.89;99873.31;4484377;32;20123;-89
2023/05/10 04:19:22;;;;;;;5.87;3.85;;;;;;;12.75;59.89;99872.94;4484720;31;20097;-88
2023/05/10 04:21:47;;;;;;;6.60;3.35;;;;;;;12.85;59.90;99880.38;4470291;32;20141;-88
2023/05/10 04:24:13;;;;;;;7.62;3.72;;;;;;;13.04;59.91;99877.88;4461722;32;20163;-87
2023/05/10 04:26:38;;;;;;;5.35;3.78;;;;;;;13.10;59.90;99882.88;4468537;32;20392;-88
2023/05/10 04:29:03;;;;;;;5.68;3.35;;;;;;;13.19;59.92;99887.75;4449422;32;31938;-88
2023/05/10 04:31:29;;;;;;;7.30;3.58;;;;;;;13.31;59.92;99889.03;4456570;32;20402;-86
2023/05/10 04:33:54;;;;;;;6.37;3.75;;;;;;;13.42;59.93;99891.19;4457203;32;20115;-87
2023/05/10 04:36:20;;;;;;;4.72;3.20;;;;;;;13.59;59.94;99885.25;4469517;32;21560;-87
2023/05/10 04:38:45;;;;;;;6.60;3.58;;;;;;;13.65;59.95;99882.38;4470098;32;20206;-86
2023/05/10 04:41:11;;;;;;;4.70;3.05;;;;;;;13.74;59.95;99885.47;4470414;32;20096;-86
2023/05/10 04:43:36;;;;;;;7.65;3.87;;;;;;;13.96;59.96;99880.16;4467471;32;20096;-87
2023/05/10 04:46:02;;;;;;;5.10;3.53;;;;;;;13.97;59.96;99883.62;4480731;32;20350;-86
2023/05/10 04:48:27;;;;;;;5.87;3.50;;;;;;;14.17;59.97;99877.47;4454366;32;20689;-87
2023/05/10 04:50:53;;;;;;;9.20;3.87;;;;;;;14.26;59.98;99877.94;4457139;32;20390;-87
2023/05/10 04:53:18;;;;;;;6.95;3.42;;;;;;;14.19;59.97;99876.50;4469820;32;20097;-85
2023/05/10 04:55:43;;;;;;;7.97;3.58;;;;;;;14.52;59.99;99873.31;4479790;32;20107;-87
2023/05/10 04:58:09;;;;;;;11.50;3.22;;;;;;;14.48;59.99;99872.63;4461748;32;20374;-85
2023/05/10 05:00:35;;;;;;;6.15;3.17;;;;;;;14.77;60.00;99878.25;4484035;31;20594;-85
2023/05/10 05:03:00;;;;;;;5.57;3.55;;;;;;;14.76;59.99;99874.78;4470209;32;20096;-89
2023/05/10 05:05:26;;;;;;;7.10;3.17;;;;;;;14.84;60.00;99883.12;4471020;32;20148;-83
2023/05/10 05:07:51;;;;;;;5.10;2.75;;;;;;;14.87;60.01;99876.88;4485548;32;20493;-83
2023/05/10 05:10:16;;;;;;;4.57;3.40;;;;;;;15.08;60.01;99872.41;4484416;32;20162;-85
2023/05/10 05:12:42;;;;;;;4.78;3.08;;;;;;;15.29;60.03;99872.19;4485575;31;22635;-84
2023/05/10 05:15:09;;;;;;;8.10;3.55;;;;;;;15.30;60.03;99870.44;4469724;32;38046;-85
2023/05/10 05:17:35;;;;;;;7.82;3.60;;;;;;;15.40;60.03;99869.06;4484463;32;20153;-84
2023/05/10 05:20:00;;;;;;;5.93;3.55;;;;;;;15.51;60.04;99877.22;4485351;31;20248;-86
2023/05/10 05:22:27;;;;;;;7.20;3.55;;;;;;;15.40;60.04;99873.47;4484001;32;20396;-85
2023/05/10 05:24:56;;;;;;;7.10;2.78;;;;;;;15.60;60.04;99862.81;4483158;32;20125;-86
2023/05/10 05:27:26;;;;;;;6.28;3.05;;;;;;;15.64;60.05;99873.09;4485456;31;20163;-86
2023/05/10 05:29:57;;;;;;;3.93;3.00;;;;;;;15.59;60.04;99875.09;4481563;32;20582;-86
2023/05/10 05:32:23;;;;;;;6.93;3.62;;;;;;;15.52;60.04;99873.69;4464479;32;20184;-86
2023/05/10 05:34:48;;;;;;;4.50;3.03;;;;;;;15.67;60.05;99879.97;4458355;32;20083;-85
2023/05/10 05:37:18;;;;;;;8.13;3.65;;;;;;;15.90;60.06;99878.78;4484409;32;20180;-87
2023/05/10 05:39:44;;;;;;;3.95;3.35;;;;;;;15.96;60.06;99879.31;4471554;32;20593;-86
2023/05/10 05:42:10;;;;;;;4.43;2.78;;;;;;;15.89;60.06;99877.09;4484466;32;20163;-87
2023/05/10 05:44:35;;;;;;;7.35;3.30;;;;;;;15.96;60.07;99883.72;4470191;32;20533;-87
2023/05/10 05:47:00;;;;;;;5.50;3.25;;;;;;;16.19;60.08;99886.00;4479449;32;20092;-87
2023/05/10 05:49:26;;;;;;;5.57;2.78;;;;;;;16.30;60.08;99872.28;4471218;32;20463;-86
2023/05/10 05:51:51;;;;;;;5.40;2.83;;;;;;;16.42;60.09;99882.13;4483753;32;35476;-87
2023/05/10 05:54:17;;;;;;;7.43;2.85;;;;;;;16.41;60.10;99879.59;4467903;32;26414;-87
2023/05/10 05:56:43;;;;;;;6.47;2.80;;;;;;;16.47;60.10;99889.75;4464344;32;31985;-87
2023/05/10 05:59:09;;;;;;;3.55;2.67;;;;;;;16.53;60.09;99882.38;4484595;32;20100;-87
2023/05/10 06:01:34;;;;;;;5.68;2.70;;;;;;;16.84;60.11;99873.72;4471585;32;20100;-87
2023/05/10 06:04:00;;;;;;;3.60;2.50;;;;;;;16.82;60.11;99888.72;4481031;31;22090;-87
2023/05/10 06:06:25;;;;;;;4.78;2.53;;;;;;;16.92;60.12;99893.47;4477929;32;27817;-87
2023/05/10 06:08:51;;;;;;;5.75;2.80;;;;;;;17.05;60.12;99890.06;4471075;32;20145;-87
2023/05/10 06:11:16;;;;;;;5.60;2.90;;;;;;;17.19;60.13;99887.50;4484680;32;20506;-88
2023/05/10 06:13:42;;;;;;;5.62;3.47;;;;;;;17.28;60.13;99888.78;4471144;32;20332;-88
2023/05/10 06:16:07;;;;;;;8.35;3.47;;;;;;;17.30;60.13;99894.78;4471699;32;20135;-88
2023/05/10 06:18:33;;;;;;;6.43;3.53;;;;;;;17.29;60.13;99893.09;4485478;31;20101;-87
2023/05/10 06:20:58;;;;;;;3.75;2.90;;;;;;;17.27;60.13;99891.47;4485840;31;20116;-88
2023/05/10 06:23:25;;;;;;;10.45;3.47;;;;;;;17.18;60.13;99898.09;4470604;32;33983;-87
2023/05/10 06:25:50;;;;;;;7.15;3.22;;;;;;;17.39;60.14;99899.50;4484747;32;20672;-87
2023/05/10 06:28:16;;;;;;;13.90;3.10;;;;;;;17.49;60.15;99900.66;4484293;32;20092;-87
2023/05/10 06:30:41;;;;;;;5.22;3.08;;;;;;;17.49;60.15;99902.44;4471421;32;20423;-89
2023/05/10 06:33:07;;;;;;;7.18;3.45;;;;;;;17.44;60.14;99899.25;4483924;32;20088;-88
2023/05/10 06:35:33;;;;;;;7.62;3.37;;;;;;;17.59;60.15;99908.03;4484385;32;20198;-87
2023/05/10 06:37:58;;;;;;;4.30;2.90;;;;;;;17.63;60.16;99901.66;4457333;32;20174;-89
2023/05/10 06:40:24;;;;;;;6.60;3.40;;;;;;;17.76;60.15;99895.63;4461016;32;22564;-87
2023/05/10 06:42:49;;;;;;;4.78;3.47;;;;;;;17.84;60.17;99902.22;4481606;32;20139;-87
2023/05/10 06:45:15;;;;;;;4.25;2.75;;;;;;;17.62;60.16;99905.22;4484232;32;20104;-87
2023/05/10 06:47:40;;;;;;;6.43;3.33;;;;;;;17.89;60.16;99908.91;4481032;32;20161;-87
2023/05/10 06:50:07;;;;;;;6.07;2.83;;;;;;;18.14;60.18;99888.97;4463669;32;20149;-88
2023/05/10 06:52:33;;;;;;;5.28;3.30;;;;;;;18.33;60.19;99894.81;4468423;32;20149;-87
2023/05/10 06:54:58;;;;;;;18.75;3.53;;;;;;;18.45;60.20;99894.06;4468597;32;20173;-87
2023/05/10 06:57:24;;;;;;;4.30;2.80;;;;;;;18.62;60.21;99893.00;4469581;32;20148;-87
2023/05/10 06:59:49;;;;;;;4.07;2.40;;;;;;;18.75;60.21;99888.69;4477149;32;20116;-87
2023/05/10 07:02:15;;;;;;;4.53;2.92;;;;;;;18.90;60.22;99889.50;4470278;32;28773;-88
2023/05/10 07:04:40;;;;;;;4.00;2.87;;;;;;;18.95;60.23;99890.06;4483623;32;20164;-87
2023/05/10 07:07:05;;;;;;;6.60;2.62;;;;;;;18.95;60.23;99887.44;4483589;32;20434;-87
2023/05/10 07:09:31;;;;;;;7.60;2.95;;;;;;;19.21;60.24;99889.22;4483061;32;36041;-87
2023/05/10 07:11:57;;;;;;;3.78;2.80;;;;;;;19.30;60.24;99883.34;4483582;32;20118;-87
2023/05/10 07:14:22;;;;;;;4.12;2.90;;;;;;;19.31;60.25;99894.72;4471176;32;20145;-87
2023/05/10 07:16:48;;;;;;;9.63;2.92;;;;;;;19.51;60.25;99885.50;4470953;32;20116;-88
2023/05/10 07:19:13;;;;;;;7.62;3.17;;;;;;;19.38;60.25;99888.09;4485357;31;20166;-88
2023/05/10 07:21:42;;;;;;;4.22;2.83;;;;;;;19.51;60.26;99888.13;4484065;32;20103;-87
2023/05/10 07:24:07;;;;;;;6.22;3.10;;;;;;;19.71;60.27;99878.91;4484252;32;20100;-87
2023/05/10 07:26:33;;;;;;;4.68;2.72;;;;;;;19.72;60.27;99888.53;4484715;32;20160;-88
2023/05/10 07:28:58;;;;;;;6.70;3.33;;;;;;;19.85;60.28;99884.09;4484583;32;20089;-88
2023/05/10 07:31:24;;;;;;;3.62;2.83;;;;;;;20.03;60.29;99877.56;4483547;32;34984;-87
2023/05/10 07:33:49;;;;;;;6.05;3.15;;;;;;;20.18;60.30;99870.38;4471107;32;20401;-88
2023/05/10 07:36:15;;;;;;;4.43;2.97;;;;;;;20.25;60.29;99874.28;4483463;32;27799;-88
2023/05/10 07:38:40;;;;;;;4.03;2.70;;;;;;;20.20;60.29;99866.66;4470789;32;20116;-88
2023/05/10 07:41:06;;;;;;;6.75;2.60;;;;;;;20.33;60.30;99868.44;4470603;32;20352;-88
2023/05/10 07:43:31;;;;;;;4.62;2.92;;;;;;;20.51;60.31;99868.03;4470685;32;20128;-88
2023/05/10 07:45:57;;;;;;;3.42;2.45;;;;;;;20.43;60.31;99866.88;4483659;32;20147;-87
2023/05/10 07:48:22;;;;;;;4.22;2.83;;;;;;;20.56;60.32;99864.19;4470828;32;20135;-88
2023/05/10 07:50:48;;;;;;;4.70;3.25;;;;;;;20.77;60.33;99862.66;4470636;32;20081;-87
2023/05/10 07:53:13;;;;;;;6.45;2.47;;;;;;;20.90;60.33;99873.22;4470787;32;20173;-87
2023/05/10 07:55:39;;;;;;;3.87;2.67;;;;;;;20.87;60.33;99871.63;4483405;32;20105;-88
2023/05/10 07:58:04;;;;;;;3.67;2.40;;;;;;;20.83;60.33;99872.81;4483622;32;20127;-88
2023/05/10 08:00:30;;;;;;;5.03;2.72;;;;;;;20.76;60.32;99872.41;4467481;32;24104;-87
2023/05/10 08:02:55;;;;;;;3.10;2.15;;;;;;;20.99;60.34;99875.19;4476038;32;20504;-88
2023/05/10 08:05:20;;;;;;;3.30;2.10;;;;;;;20.97;60.33;99877.09;4454057;32;30515;-87
2023/05/10 08:07:46;;;;;;;3.58;2.12;;;;;;;20.86;60.33;99872.59;4463111;32;20166;-87
2023/05/10 08:10:11;;;;;;;3.05;2.15;;;;;;;21.07;60.34;99876.31;4483354;32;20131;-87
2023/05/10 08:12:37;;;;;;;4.47;2.58;;;;;;;20.88;60.34;99873.31;4482800;32;34855;-88
2023/05/10 08:15:03;;;;;;;3.40;2.42;;;;;;;20.47;60.31;99863.91;4484674;31;20093;-86
2023/05/10 08:17:29;;;;;;;2.67;2.20;;;;;;;20.69;60.32;99875.59;4470338;32;20497;-88
2023/05/10 08:19:54;;;;;;;4.37;2.30;;;;;;;20.86;60.33;99877.88;4483021;32;22310;-88
2023/05/10 08:22:19;;;;;;;4.57;2.45;;;;;;;21.05;60.34;99866.78;4482707;32;31749;-87
2023/05/10 08:24:45;;;;;;;3.45;2.33;;;;;;;21.05;60.34;99883.50;4468692;32;20156;-87
2023/05/10 08:27:10;;;;;;;3.90;2.20;;;;;;;20.93;60.33;99876.47;4476442;32;25047;-88
2023/05/10 08:29:36;;;;;;;3.75;2.20;;;;;;;21.13;60.35;99870.56;4467832;32;20417;-88
2023/05/10 08:32:02;;;;;;;7.18;2.30;;;;;;;21.44;60.36;99857.72;4474294;32;20441;-89
2023/05/10 08:34:27;;;;;;;3.67;2.37;;;;;;;21.71;60.38;99860.09;4470277;32;20136;-87
2023/05/10 08:36:53;;;;;;;4.78;2.17;;;;;;;21.81;60.38;99855.78;4456417;32;21738;-88
2023/05/10 08:39:18;;;;;;;3.35;1.92;;;;;;;22.09;60.39;99857.16;4454585;32;20158;-87
2023/05/10 08:41:44;;;;;;;3.20;2.20;;;;;;;22.20;60.40;99854.50;4484405;31;20126;-87
2023/05/10 08:44:10;;;;;;;3.75;2.05;;;;;;;22.24;60.41;99845.38;4483347;32;20157;-87
2023/05/10 08:46:38;;;;;;;5.60;2.40;;;;;;;22.40;60.42;99862.69;4484667;32;20519;-88
2023/05/10 08:49:04;;;;;;;3.90;2.20;;;;;;;22.34;60.41;99854.28;4483369;32;20084;-87
2023/05/10 08:51:30;;;;;;;3.70;2.55;;;;;;;22.23;60.40;99851.59;4470192;32;20095;-87
2023/05/10 08:53:55;;;;;;;2.60;2.03;;;;;;;22.07;60.39;99850.31;4457400;32;20771;-88
2023/05/10 08:56:21;;;;;;;5.90;2.53;;;;;;;21.88;60.39;99856.16;4469638;32;20491;-86
2023/05/10 08:58:46;;;;;;;4.60;2.20;;;;;;;21.99;60.39;99858.78;4469700;32;20084;-88
2023/05/10 09:01:12;;;;;;;3.37;2.12;;;;;;;22.21;60.41;99847.41;4467319;32;20099;-88
2023/05/10 09:03:41;;;;;;;3.03;2.00;;;;;;;22.30;60.40;99852.00;4478912;32;20185;-88
2023/05/10 09:06:06;;;;;;;3.05;2.35;;;;;;;22.50;60.42;99853.91;4466558;32;21636;-88
2023/05/10 09:08:32;;;;;;;4.22;2.30;;;;;;;22.53;60.42;99855.47;4479015;32;20137;-87
2023/05/10 09:10:57;;;;;;;3.33;2.22;;;;;;;22.80;60.44;99844.44;4462995;32;20179;-87
2023/05/10 09:13:23;;;;;;;2.78;1.85;;;;;;;23.15;60.45;99844.22;4441810;32;38302;-88
2023/05/10 09:15:49;;;;;;;2.33;1.80;;;;;;;23.43;60.47;99841.00;4482769;32;20123;-88
2023/05/10 09:18:14;;;;;;;2.62;1.83;;;;;;;23.71;60.48;99838.69;4469499;32;20107;-88
2023/05/10 09:20:40;;;;;;;2.35;1.92;;;;;;;24.03;60.49;99846.56;4483930;32;20135;-87
2023/05/10 09:23:05;;;;;;;2.42;2.20;;;;;;;24.23;60.51;99834.19;4482456;32;20140;-87
2023/05/10 09:25:33;;;;;;;3.30;1.83;;;;;;;24.30;60.51;99833.53;4456580;32;20104;-88
2023/05/10 09:27:58;;;;;;;3.65;1.65;;;;;;;24.27;60.52;99844.41;4469783;32;20111;-87
2023/05/10 09:30:26;;;;;;;3.15;1.65;;;;;;;24.31;60.51;99839.69;4469524;32;20500;-88
2023/05/10 09:32:51;;;;;;;2.65;2.10;;;;;;;24.37;60.52;99833.84;4482659;32;20105;-89
2023/05/10 09:35:18;;;;;;;4.20;2.47;;;;;;;24.27;60.51;99832.94;4469622;32;20088;-87
2023/05/10 09:37:47;;;;;;;2.95;2.03;;;;;;;24.24;60.51;99826.06;4469482;32;20084;-87
2023/05/10 09:40:16;;;;;;;5.62;2.40;;;;;;;24.31;60.51;99826.41;4454056;32;20090;-88
2023/05/10 09:42:57;;;;;;;4.10;1.90;;;;;;;24.11;60.51;99826.28;4479544;32;20109;-88
2023/05/10 09:45:24;;;;;;;2.42;1.50;;;;;;;23.71;60.48;99828.91;4482583;32;20112;-88
2023/05/10 09:47:50;;;;;;;4.37;2.53;;;;;;;23.62;60.48;99842.09;4483432;31;20103;-88
2023/05/10 09:50:15;;;;;;;3.37;2.12;;;;;;;23.79;60.49;99828.22;4483977;32;20152;-88
2023/05/10 09:52:51;;;;;;;7.37;2.10;;;;;;;23.73;60.49;99832.25;4455573;32;20149;-87
2023/05/10 09:55:19;;;;;;;3.67;2.03;;;;;;;23.74;60.49;99836.59;4479374;32;20354;-88
2023/05/10 09:57:46;;;;;;;3.92;2.12;;;;;;;23.74;60.49;99828.63;4468879;32;20088;-88
2023/05/10 10:00:17;;;;;;;3.03;1.92;;;;;;;23.87;60.49;99836.38;4453602;32;20122;-88
2023/05/10 10:02:42;;;;;;;3.90;2.28;;;;;;;24.01;60.50;99820.09;4484738;32;20444;-88
2023/05/10 10:05:08;;;;;;;2.42;1.98;;;;;;;24.01;60.50;99820.09;4457958;32;20128;-89
2023/05/10 10:07:33;;;;;;;5.82;2.10;;;;;;;24.25;60.51;99819.78;4471772;32;20084;-88
2023/05/10 10:09:59;;;;;;;2.95;1.50;;;;;;;24.21;60.52;99814.88;4461139;32;20179;-89
2023/05/10 10:12:25;;;;;;;7.22;2.03;;;;;;;24.18;60.51;99813.31;4470762;32;31776;-88
2023/05/10 10:14:50;;;;;;;3.08;2.08;;;;;;;24.24;60.51;99815.44;4458459;32;20456;-87
2023/05/10 10:17:16;;;;;;;2.80;1.92;;;;;;;24.10;60.50;99813.13;4471384;32;20160;-87
2023/05/10 10:19:41;;;;;;;4.18;2.37;;;;;;;24.11;60.51;99813.00;4471350;32;20069;-88
2023/05/10 10:22:07;;;;;;;4.05;2.10;;;;;;;24.01;60.50;99817.44;4455694;32;20168;-88
2023/05/10 10:24:33;;;;;;;2.22;1.83;;;;;;;23.84;60.49;99815.38;4466944;32;20135;-88
2023/05/10 10:27:23;;;;;;;2.33;1.87;;;;;;;23.91;60.50;99803.28;4484406;32;20487;-88
2023/05/10 10:30:41;;;;;;;2.62;2.00;;;;;;;23.77;60.49;99806.25;4484109;32;20164;-88
2023/05/10 10:33:28;;;;;;;8.60;2.10;;;;;;;23.92;60.50;99807.59;4408367;32;20113;-88
2023/05/10 10:35:54;;;;;;;2.12;1.92;;;;;;;23.95;60.50;99804.69;4484489;32;20127;-87
2023/05/10 10:38:20;;;;;;;2.20;2.00;;;;;;;23.84;60.49;99807.41;4468105;32;27544;-86
2023/05/10 10:40:46;;;;;;;1.92;1.73;;;;;;;23.86;60.49;99808.97;4466238;32;20093;-89
2023/05/10 10:43:38;;;;;;;3.08;2.15;;;;;;;23.74;60.50;99799.41;4473724;32;20259;-88
2023/05/10 10:46:17;;;;;;;2.50;1.67;;;;;;;23.84;60.49;99794.13;4482648;31;20133;-88
2023/05/10 10:49:07;;;;;;;5.10;2.33;;;;;;;23.70;60.49;99802.44;4468932;32;20141;-88
2023/05/10 10:51:37;;;;;;;4.62;1.80;;;;;;;23.80;60.50;99798.84;4475736;32;20497;-88
2023/05/10 10:54:10;;;;;;;1.62;1.40;;;;;;;24.11;60.52;99791.72;4474955;32;20085;-88
2023/05/10 10:56:35;;;;;;;2.55;1.67;;;;;;;24.30;60.52;99787.47;4468376;32;20112;-88
2023/05/10 10:59:01;;;;;;;2.35;1.67;;;;;;;24.42;60.52;99783.75;4481759;32;20163;-88
2023/05/10 11:01:26;;;;;;;1.27;1.15;;;;;;;24.66;60.54;99773.56;4470016;32;20123;-88
2023/05/10 11:04:15;;;;;;;4.43;1.80;;;;;;;24.62;60.54;99772.16;4483444;32;22855;-88
2023/05/10 11:06:42;;;;;;;2.90;1.30;;;;;;;24.41;60.52;99772.25;4473373;32;20618;-88
2023/05/10 11:09:08;;;;;;;2.12;1.60;;;;;;;24.29;60.52;99769.81;4455718;32;20155;-88
2023/05/10 11:11:34;;;;;;;5.07;1.62;;;;;;;24.32;60.52;99767.72;4452967;32;20096;-87
2023/05/10 11:14:04;;;;;;;2.53;1.40;;;;;;;24.12;60.52;99763.28;4473803;31;20120;-88
2023/05/10 11:16:29;;;;;;;5.43;1.55;;;;;;;24.28;60.53;99765.47;4471083;32;20115;-87
2023/05/10 11:19:01;;;;;;;2.20;1.48;;;;;;;24.65;60.54;99768.38;4470781;32;20852;-88
2023/05/10 11:21:27;;;;;;;3.47;1.60;;;;;;;24.79;60.54;99760.81;4485195;31;20110;-88
2023/05/10 11:23:57;;;;;;;3.10;1.33;;;;;;;24.70;60.54;99761.66;4471106;32;20126;-88
2023/05/10 11:26:30;;;;;;;2.17;1.37;;;;;;;24.53;60.54;99756.16;4458779;32;20616;-87
2023/05/10 11:28:55;;;;;;;3.35;1.33;;;;;;;24.62;60.54;99756.19;4484080;32;20136;-89
2023/05/10 11:31:21;;;;;;;2.20;1.40;;;;;;;24.63;60.54;99755.22;4458589;32;20139;-88
2023/05/10 11:33:50;;;;;;;2.42;1.80;;;;;;;24.52;60.54;99746.50;4458272;32;20458;-87
2023/05/10 11:36:35;;;;;;;1.50;1.30;;;;;;;24.41;60.52;99756.28;4484271;32;20100;-87